sensor_id;sensor_type;location;lat;lon;timestamp;P1;durP1;ratioP1;P2;durP2;ratioP2
29940;SDS011;16801;53.562;10.038;2024-02-16T00:01:56;3.50;;;3.20;;
29940;SDS011;16801;53.562;10.038;2024-02-16T00:05:18;3.57;;;3.27;;
29940;SDS011;16801;53.562;10.038;2024-02-16T00:08:41;4.00;;;3.67;;
29940;SDS011;16801;53.562;10.038;2024-02-16T00:12:04;8.60;;;3.60;;
29940;SDS011;16801;53.562;10.038;2024-02-16T00:15:25;3.60;;;3.30;;
29940;SDS011;16801;53.562;10.038;2024-02-16T00:18:46;3.87;;;3.57;;
29940;SDS011;16801;53.562;10.038;2024-02-16T00:22:07;3.43;;;3.13;;
29940;SDS011;16801;53.562;10.038;2024-02-16T00:25:30;3.43;;;3.13;;
29940;SDS011;16801;53.562;10.038;2024-02-16T00:28:51;4.03;;;3.63;;
29940;SDS011;16801;53.562;10.038;2024-02-16T00:32:12;5.30;;;3.83;;
29940;SDS011;16801;53.562;10.038;2024-02-16T00:35:33;3.70;;;3.37;;
29940;SDS011;16801;53.562;10.038;2024-02-16T00:38:54;3.83;;;3.50;;
29940;SDS011;16801;53.562;10.038;2024-02-16T00:42:16;3.33;;;3.03;;
29940;SDS011;16801;53.562;10.038;2024-02-16T00:45:37;5.03;;;3.27;;
29940;SDS011;16801;53.562;10.038;2024-02-16T00:49:00;5.30;;;3.30;;
29940;SDS011;16801;53.562;10.038;2024-02-16T00:52:22;3.10;;;2.80;;
29940;SDS011;16801;53.562;10.038;2024-02-16T00:55:43;5.03;;;3.33;;
29940;SDS011;16801;53.562;10.038;2024-02-16T00:59:06;2.97;;;2.73;;
29940;SDS011;16801;53.562;10.038;2024-02-16T01:02:28;3.07;;;2.77;;
29940;SDS011;16801;53.562;10.038;2024-02-16T01:05:51;3.27;;;2.83;;
29940;SDS011;16801;53.562;10.038;2024-02-16T01:09:11;6.13;;;3.30;;
29940;SDS011;16801;53.562;10.038;2024-02-16T01:12:32;8.13;;;3.07;;
29940;SDS011;16801;53.562;10.038;2024-02-16T01:15:58;3.80;;;3.50;;
29940;SDS011;16801;53.562;10.038;2024-02-16T01:19:18;3.47;;;2.40;;
29940;SDS011;16801;53.562;10.038;2024-02-16T01:22:39;3.20;;;2.60;;
29940;SDS011;16801;53.562;10.038;2024-02-16T01:26:00;3.30;;;2.93;;
29940;SDS011;16801;53.562;10.038;2024-02-16T01:29:22;4.40;;;2.97;;
29940;SDS011;16801;53.562;10.038;2024-02-16T01:32:44;2.80;;;2.60;;
29940;SDS011;16801;53.562;10.038;2024-02-16T01:36:05;2.77;;;2.53;;
29940;SDS011;16801;53.562;10.038;2024-02-16T01:39:26;3.30;;;3.00;;
29940;SDS011;16801;53.562;10.038;2024-02-16T01:42:47;2.90;;;2.60;;
29940;SDS011;16801;53.562;10.038;2024-02-16T01:46:08;3.43;;;3.13;;
29940;SDS011;16801;53.562;10.038;2024-02-16T01:49:30;3.10;;;2.83;;
29940;SDS011;16801;53.562;10.038;2024-02-16T01:52:51;3.17;;;2.70;;
29940;SDS011;16801;53.562;10.038;2024-02-16T01:56:12;3.53;;;3.10;;
29940;SDS011;16801;53.562;10.038;2024-02-16T01:59:36;3.10;;;2.90;;
29940;SDS011;16801;53.562;10.038;2024-02-16T02:02:59;3.03;;;2.77;;
29940;SDS011;16801;53.562;10.038;2024-02-16T02:06:21;4.20;;;2.90;;
29940;SDS011;16801;53.562;10.038;2024-02-16T02:09:43;2.90;;;2.70;;
29940;SDS011;16801;53.562;10.038;2024-02-16T02:13:04;3.60;;;2.60;;
29940;SDS011;16801;53.562;10.038;2024-02-16T02:16:25;3.77;;;3.20;;
29940;SDS011;16801;53.562;10.038;2024-02-16T02:19:47;5.43;;;3.73;;
29940;SDS011;16801;53.562;10.038;2024-02-16T02:23:09;3.30;;;3.00;;
29940;SDS011;16801;53.562;10.038;2024-02-16T02:26:30;3.10;;;2.83;;
29940;SDS011;16801;53.562;10.038;2024-02-16T02:29:54;3.70;;;2.77;;
29940;SDS011;16801;53.562;10.038;2024-02-16T02:33:15;4.87;;;2.90;;
29940;SDS011;16801;53.562;10.038;2024-02-16T02:36:36;3.33;;;2.33;;
29940;SDS011;16801;53.562;10.038;2024-02-16T02:39:58;6.47;;;3.53;;
29940;SDS011;16801;53.562;10.038;2024-02-16T02:43:19;5.13;;;3.00;;
29940;SDS011;16801;53.562;10.038;2024-02-16T02:46:41;3.83;;;3.53;;
29940;SDS011;16801;53.562;10.038;2024-02-16T02:50:02;4.70;;;3.17;;
29940;SDS011;16801;53.562;10.038;2024-02-16T02:53:24;5.83;;;3.30;;
29940;SDS011;16801;53.562;10.038;2024-02-16T02:56:46;3.43;;;3.10;;
29940;SDS011;16801;53.562;10.038;2024-02-16T03:00:07;5.37;;;3.33;;
29940;SDS011;16801;53.562;10.038;2024-02-16T03:03:30;2.83;;;2.60;;
29940;SDS011;16801;53.562;10.038;2024-02-16T03:06:53;2.67;;;2.47;;
29940;SDS011;16801;53.562;10.038;2024-02-16T03:10:14;5.57;;;2.83;;
29940;SDS011;16801;53.562;10.038;2024-02-16T03:13:42;4.00;;;2.87;;
29940;SDS011;16801;53.562;10.038;2024-02-16T03:17:02;8.23;;;3.07;;
29940;SDS011;16801;53.562;10.038;2024-02-16T03:20:23;3.87;;;2.67;;
29940;SDS011;16801;53.562;10.038;2024-02-16T03:23:45;4.17;;;3.10;;
29940;SDS011;16801;53.562;10.038;2024-02-16T03:27:06;2.97;;;2.30;;
29940;SDS011;16801;53.562;10.038;2024-02-16T03:30:28;2.73;;;2.50;;
29940;SDS011;16801;53.562;10.038;2024-02-16T03:33:49;2.70;;;2.50;;
29940;SDS011;16801;53.562;10.038;2024-02-16T03:37:12;4.33;;;2.73;;
29940;SDS011;16801;53.562;10.038;2024-02-16T03:40:33;3.10;;;2.83;;
29940;SDS011;16801;53.562;10.038;2024-02-16T03:43:56;3.40;;;3.10;;
29940;SDS011;16801;53.562;10.038;2024-02-16T03:47:19;2.17;;;2.07;;
29940;SDS011;16801;53.562;10.038;2024-02-16T03:50:40;3.27;;;2.40;;
29940;SDS011;16801;53.562;10.038;2024-02-16T03:54:01;3.83;;;2.53;;
29940;SDS011;16801;53.562;10.038;2024-02-16T03:57:23;2.63;;;2.43;;
29940;SDS011;16801;53.562;10.038;2024-02-16T04:00:47;3.63;;;2.83;;
29940;SDS011;16801;53.562;10.038;2024-02-16T04:04:09;2.93;;;2.70;;
29940;SDS011;16801;53.562;10.038;2024-02-16T04:07:30;3.33;;;2.40;;
29940;SDS011;16801;53.562;10.038;2024-02-16T04:10:51;2.37;;;1.80;;
29940;SDS011;16801;53.562;10.038;2024-02-16T04:14:12;2.47;;;2.27;;
29940;SDS011;16801;53.562;10.038;2024-02-16T04:17:33;2.60;;;2.33;;
29940;SDS011;16801;53.562;10.038;2024-02-16T04:20:56;3.93;;;2.23;;
29940;SDS011;16801;53.562;10.038;2024-02-16T04:24:17;3.27;;;2.37;;
29940;SDS011;16801;53.562;10.038;2024-02-16T04:27:38;2.47;;;2.27;;
29940;SDS011;16801;53.562;10.038;2024-02-16T04:30:59;2.27;;;2.07;;
29940;SDS011;16801;53.562;10.038;2024-02-16T04:34:20;2.13;;;2.03;;
29940;SDS011;16801;53.562;10.038;2024-02-16T04:37:42;2.50;;;2.10;;
29940;SDS011;16801;53.562;10.038;2024-02-16T04:41:04;2.30;;;2.10;;
29940;SDS011;16801;53.562;10.038;2024-02-16T04:44:25;2.10;;;2.00;;
29940;SDS011;16801;53.562;10.038;2024-02-16T04:47:46;2.43;;;2.10;;
29940;SDS011;16801;53.562;10.038;2024-02-16T04:51:07;2.30;;;1.93;;
29940;SDS011;16801;53.562;10.038;2024-02-16T04:54:30;3.43;;;2.63;;
29940;SDS011;16801;53.562;10.038;2024-02-16T04:57:51;4.97;;;2.37;;
29940;SDS011;16801;53.562;10.038;2024-02-16T05:01:12;3.63;;;2.20;;
29940;SDS011;16801;53.562;10.038;2024-02-16T05:04:33;3.40;;;2.50;;
29940;SDS011;16801;53.562;10.038;2024-02-16T05:07:54;2.37;;;2.07;;
29940;SDS011;16801;53.562;10.038;2024-02-16T05:11:16;3.00;;;2.70;;
29940;SDS011;16801;53.562;10.038;2024-02-16T05:14:37;3.43;;;3.10;;
29940;SDS011;16801;53.562;10.038;2024-02-16T05:17:58;3.83;;;2.17;;
29940;SDS011;16801;53.562;10.038;2024-02-16T05:21:19;5.20;;;2.73;;
29940;SDS011;16801;53.562;10.038;2024-02-16T05:24:40;5.43;;;2.73;;
29940;SDS011;16801;53.562;10.038;2024-02-16T05:28:03;3.07;;;2.20;;
29940;SDS011;16801;53.562;10.038;2024-02-16T05:31:24;3.43;;;1.90;;
29940;SDS011;16801;53.562;10.038;2024-02-16T05:34:45;3.57;;;2.03;;
29940;SDS011;16801;53.562;10.038;2024-02-16T05:38:06;2.57;;;1.60;;
29940;SDS011;16801;53.562;10.038;2024-02-16T05:41:40;2.57;;;2.37;;
29940;SDS011;16801;53.562;10.038;2024-02-16T05:45:03;4.40;;;2.37;;
29940;SDS011;16801;53.562;10.038;2024-02-16T05:48:26;3.03;;;2.00;;
29940;SDS011;16801;53.562;10.038;2024-02-16T05:51:50;1.90;;;1.53;;
29940;SDS011;16801;53.562;10.038;2024-02-16T05:55:36;3.40;;;2.37;;
29940;SDS011;16801;53.562;10.038;2024-02-16T05:58:57;3.03;;;2.33;;
29940;SDS011;16801;53.562;10.038;2024-02-16T06:02:20;5.77;;;2.63;;
29940;SDS011;16801;53.562;10.038;2024-02-16T06:05:41;4.67;;;2.23;;
29940;SDS011;16801;53.562;10.038;2024-02-16T06:09:06;4.43;;;2.57;;
29940;SDS011;16801;53.562;10.038;2024-02-16T06:12:27;2.47;;;2.00;;
29940;SDS011;16801;53.562;10.038;2024-02-16T06:15:48;2.33;;;2.13;;
29940;SDS011;16801;53.562;10.038;2024-02-16T06:19:10;2.23;;;2.03;;
29940;SDS011;16801;53.562;10.038;2024-02-16T06:22:32;2.63;;;2.43;;
29940;SDS011;16801;53.562;10.038;2024-02-16T06:25:53;3.47;;;2.03;;
29940;SDS011;16801;53.562;10.038;2024-02-16T06:29:14;3.47;;;2.70;;
29940;SDS011;16801;53.562;10.038;2024-02-16T06:32:35;3.80;;;2.17;;
29940;SDS011;16801;53.562;10.038;2024-02-16T06:35:57;5.57;;;2.50;;
29940;SDS011;16801;53.562;10.038;2024-02-16T06:39:18;4.43;;;2.87;;
29940;SDS011;16801;53.562;10.038;2024-02-16T06:42:39;4.33;;;2.67;;
29940;SDS011;16801;53.562;10.038;2024-02-16T06:46:00;4.43;;;3.27;;
29940;SDS011;16801;53.562;10.038;2024-02-16T06:49:21;5.40;;;3.07;;
29940;SDS011;16801;53.562;10.038;2024-02-16T06:52:44;3.93;;;2.40;;
29940;SDS011;16801;53.562;10.038;2024-02-16T06:56:05;5.33;;;2.30;;
29940;SDS011;16801;53.562;10.038;2024-02-16T06:59:27;3.30;;;2.73;;
29940;SDS011;16801;53.562;10.038;2024-02-16T07:02:48;2.73;;;2.53;;
29940;SDS011;16801;53.562;10.038;2024-02-16T07:06:08;5.07;;;2.53;;
29940;SDS011;16801;53.562;10.038;2024-02-16T07:09:34;3.57;;;2.50;;
29940;SDS011;16801;53.562;10.038;2024-02-16T07:12:55;3.57;;;2.13;;
29940;SDS011;16801;53.562;10.038;2024-02-16T07:16:19;12.10;;;3.20;;
29940;SDS011;16801;53.562;10.038;2024-02-16T07:19:40;12.53;;;3.03;;
29940;SDS011;16801;53.562;10.038;2024-02-16T07:23:03;7.47;;;2.80;;
29940;SDS011;16801;53.562;10.038;2024-02-16T07:26:26;3.37;;;2.73;;
29940;SDS011;16801;53.562;10.038;2024-02-16T07:29:46;4.80;;;2.60;;
29940;SDS011;16801;53.562;10.038;2024-02-16T07:33:07;4.67;;;2.30;;
29940;SDS011;16801;53.562;10.038;2024-02-16T07:36:29;2.83;;;2.63;;
29940;SDS011;16801;53.562;10.038;2024-02-16T07:39:51;3.10;;;2.53;;
29940;SDS011;16801;53.562;10.038;2024-02-16T07:43:14;5.60;;;2.50;;
29940;SDS011;16801;53.562;10.038;2024-02-16T07:46:39;2.60;;;2.00;;
29940;SDS011;16801;53.562;10.038;2024-02-16T07:50:00;2.87;;;2.67;;
29940;SDS011;16801;53.562;10.038;2024-02-16T07:53:22;3.73;;;2.33;;
29940;SDS011;16801;53.562;10.038;2024-02-16T07:56:43;6.43;;;2.73;;
29940;SDS011;16801;53.562;10.038;2024-02-16T08:00:07;3.93;;;2.30;;
29940;SDS011;16801;53.562;10.038;2024-02-16T08:03:30;5.37;;;3.23;;
29940;SDS011;16801;53.562;10.038;2024-02-16T08:06:52;4.23;;;2.33;;
29940;SDS011;16801;53.562;10.038;2024-02-16T08:10:14;5.37;;;3.13;;
29940;SDS011;16801;53.562;10.038;2024-02-16T08:13:35;5.60;;;2.53;;
29940;SDS011;16801;53.562;10.038;2024-02-16T08:16:57;6.60;;;3.03;;
29940;SDS011;16801;53.562;10.038;2024-02-16T08:20:18;4.73;;;3.10;;
29940;SDS011;16801;53.562;10.038;2024-02-16T08:23:40;3.00;;;2.60;;
29940;SDS011;16801;53.562;10.038;2024-02-16T08:27:01;4.70;;;2.50;;
29940;SDS011;16801;53.562;10.038;2024-02-16T08:30:23;6.83;;;3.00;;
29940;SDS011;16801;53.562;10.038;2024-02-16T08:33:46;2.73;;;1.90;;
29940;SDS011;16801;53.562;10.038;2024-02-16T08:37:07;3.70;;;2.27;;
29940;SDS011;16801;53.562;10.038;2024-02-16T08:40:29;2.17;;;1.90;;
29940;SDS011;16801;53.562;10.038;2024-02-16T08:43:50;3.17;;;2.23;;
29940;SDS011;16801;53.562;10.038;2024-02-16T08:47:11;2.57;;;1.93;;
29940;SDS011;16801;53.562;10.038;2024-02-16T08:50:33;3.03;;;2.30;;
29940;SDS011;16801;53.562;10.038;2024-02-16T08:53:54;3.73;;;2.00;;
29940;SDS011;16801;53.562;10.038;2024-02-16T08:57:15;2.80;;;2.23;;
29940;SDS011;16801;53.562;10.038;2024-02-16T09:00:36;2.87;;;2.40;;
29940;SDS011;16801;53.562;10.038;2024-02-16T09:03:58;5.10;;;2.10;;
29940;SDS011;16801;53.562;10.038;2024-02-16T09:07:21;2.27;;;2.07;;
29940;SDS011;16801;53.562;10.038;2024-02-16T09:10:43;2.80;;;2.50;;
29940;SDS011;16801;53.562;10.038;2024-02-16T09:14:04;5.80;;;3.27;;
29940;SDS011;16801;53.562;10.038;2024-02-16T09:17:25;2.17;;;1.97;;
29940;SDS011;16801;53.562;10.038;2024-02-16T09:20:46;5.40;;;2.53;;
29940;SDS011;16801;53.562;10.038;2024-02-16T09:24:09;3.20;;;2.07;;
29940;SDS011;16801;53.562;10.038;2024-02-16T09:27:36;4.17;;;2.40;;
29940;SDS011;16801;53.562;10.038;2024-02-16T09:31:00;4.57;;;2.20;;
29940;SDS011;16801;53.562;10.038;2024-02-16T09:34:21;2.87;;;2.30;;
29940;SDS011;16801;53.562;10.038;2024-02-16T09:37:42;3.50;;;1.93;;
29940;SDS011;16801;53.562;10.038;2024-02-16T09:41:05;3.23;;;1.90;;
29940;SDS011;16801;53.562;10.038;2024-02-16T09:44:25;6.43;;;2.00;;
29940;SDS011;16801;53.562;10.038;2024-02-16T09:47:48;4.97;;;2.27;;
29940;SDS011;16801;53.562;10.038;2024-02-16T09:51:10;2.07;;;1.83;;
29940;SDS011;16801;53.562;10.038;2024-02-16T09:54:32;3.03;;;2.53;;
29940;SDS011;16801;53.562;10.038;2024-02-16T09:58:01;4.37;;;2.63;;
29940;SDS011;16801;53.562;10.038;2024-02-16T10:01:24;3.10;;;2.23;;
29940;SDS011;16801;53.562;10.038;2024-02-16T10:04:45;3.97;;;2.50;;
29940;SDS011;16801;53.562;10.038;2024-02-16T10:08:10;2.63;;;1.60;;
29940;SDS011;16801;53.562;10.038;2024-02-16T10:11:32;2.40;;;2.20;;
29940;SDS011;16801;53.562;10.038;2024-02-16T10:14:55;2.23;;;1.97;;
29940;SDS011;16801;53.562;10.038;2024-02-16T10:18:18;2.77;;;1.83;;
29940;SDS011;16801;53.562;10.038;2024-02-16T10:21:40;5.13;;;2.23;;
29940;SDS011;16801;53.562;10.038;2024-02-16T10:25:06;3.10;;;1.50;;
29940;SDS011;16801;53.562;10.038;2024-02-16T10:28:31;2.27;;;2.13;;
29940;SDS011;16801;53.562;10.038;2024-02-16T10:31:53;5.57;;;1.80;;
29940;SDS011;16801;53.562;10.038;2024-02-16T10:35:15;3.57;;;1.73;;
29940;SDS011;16801;53.562;10.038;2024-02-16T10:38:37;3.23;;;1.87;;
29940;SDS011;16801;53.562;10.038;2024-02-16T10:42:02;1.87;;;1.40;;
29940;SDS011;16801;53.562;10.038;2024-02-16T10:45:24;2.20;;;2.00;;
29940;SDS011;16801;53.562;10.038;2024-02-16T10:48:46;5.70;;;2.00;;
29940;SDS011;16801;53.562;10.038;2024-02-16T10:52:07;3.27;;;2.17;;
29940;SDS011;16801;53.562;10.038;2024-02-16T10:55:29;2.30;;;2.00;;
29940;SDS011;16801;53.562;10.038;2024-02-16T10:58:50;3.20;;;2.27;;
29940;SDS011;16801;53.562;10.038;2024-02-16T11:02:12;3.70;;;1.83;;
29940;SDS011;16801;53.562;10.038;2024-02-16T11:05:35;2.97;;;2.50;;
29940;SDS011;16801;53.562;10.038;2024-02-16T11:09:00;2.37;;;1.93;;
29940;SDS011;16801;53.562;10.038;2024-02-16T11:12:22;3.17;;;2.20;;
29940;SDS011;16801;53.562;10.038;2024-02-16T11:15:43;8.03;;;2.50;;
29940;SDS011;16801;53.562;10.038;2024-02-16T11:19:04;2.73;;;2.13;;
29940;SDS011;16801;53.562;10.038;2024-02-16T11:22:29;2.63;;;1.80;;
29940;SDS011;16801;53.562;10.038;2024-02-16T11:25:50;2.47;;;1.53;;
29940;SDS011;16801;53.562;10.038;2024-02-16T11:29:11;2.50;;;1.80;;
29940;SDS011;16801;53.562;10.038;2024-02-16T11:32:32;4.57;;;2.00;;
29940;SDS011;16801;53.562;10.038;2024-02-16T11:35:54;3.77;;;1.67;;
29940;SDS011;16801;53.562;10.038;2024-02-16T11:39:18;4.50;;;1.73;;
29940;SDS011;16801;53.562;10.038;2024-02-16T11:42:39;3.03;;;2.80;;
29940;SDS011;16801;53.562;10.038;2024-02-16T11:46:10;1.73;;;1.63;;
29940;SDS011;16801;53.562;10.038;2024-02-16T11:49:32;2.20;;;2.07;;
29940;SDS011;16801;53.562;10.038;2024-02-16T11:52:53;1.73;;;1.60;;
29940;SDS011;16801;53.562;10.038;2024-02-16T11:56:22;4.00;;;1.90;;
29940;SDS011;16801;53.562;10.038;2024-02-16T11:59:44;2.03;;;1.77;;
29940;SDS011;16801;53.562;10.038;2024-02-16T12:03:05;2.23;;;2.03;;
29940;SDS011;16801;53.562;10.038;2024-02-16T12:06:27;2.03;;;1.43;;
29940;SDS011;16801;53.562;10.038;2024-02-16T12:09:54;2.10;;;1.43;;
29940;SDS011;16801;53.562;10.038;2024-02-16T12:13:18;5.30;;;3.00;;
29940;SDS011;16801;53.562;10.038;2024-02-16T12:16:40;2.90;;;2.27;;
29940;SDS011;16801;53.562;10.038;2024-02-16T12:20:01;6.47;;;2.30;;
29940;SDS011;16801;53.562;10.038;2024-02-16T12:23:22;2.83;;;2.33;;
29940;SDS011;16801;53.562;10.038;2024-02-16T12:26:43;3.03;;;2.03;;
29940;SDS011;16801;53.562;10.038;2024-02-16T12:30:07;4.33;;;2.97;;
29940;SDS011;16801;53.562;10.038;2024-02-16T12:33:28;3.27;;;1.50;;
29940;SDS011;16801;53.562;10.038;2024-02-16T12:36:49;1.90;;;1.80;;
29940;SDS011;16801;53.562;10.038;2024-02-16T12:40:10;2.93;;;2.30;;
29940;SDS011;16801;53.562;10.038;2024-02-16T12:43:31;4.07;;;1.83;;
29940;SDS011;16801;53.562;10.038;2024-02-16T12:46:54;3.53;;;2.40;;
29940;SDS011;16801;53.562;10.038;2024-02-16T12:50:15;5.07;;;2.43;;
29940;SDS011;16801;53.562;10.038;2024-02-16T12:53:37;4.47;;;2.87;;
29940;SDS011;16801;53.562;10.038;2024-02-16T12:57:00;3.27;;;2.73;;
29940;SDS011;16801;53.562;10.038;2024-02-16T13:00:21;3.00;;;2.47;;
29940;SDS011;16801;53.562;10.038;2024-02-16T13:03:44;4.73;;;2.47;;
29940;SDS011;16801;53.562;10.038;2024-02-16T13:07:05;8.10;;;2.80;;
29940;SDS011;16801;53.562;10.038;2024-02-16T13:10:26;4.60;;;2.67;;
29940;SDS011;16801;53.562;10.038;2024-02-16T13:13:47;5.23;;;3.00;;
29940;SDS011;16801;53.562;10.038;2024-02-16T13:17:07;5.57;;;2.57;;
29940;SDS011;16801;53.562;10.038;2024-02-16T13:20:30;3.10;;;2.63;;
29940;SDS011;16801;53.562;10.038;2024-02-16T13:23:51;5.87;;;2.87;;
29940;SDS011;16801;53.562;10.038;2024-02-16T13:27:12;3.17;;;2.37;;
29940;SDS011;16801;53.562;10.038;2024-02-16T13:30:33;2.40;;;2.03;;
29940;SDS011;16801;53.562;10.038;2024-02-16T13:33:54;9.10;;;2.63;;
29940;SDS011;16801;53.562;10.038;2024-02-16T13:37:16;3.97;;;2.90;;
29940;SDS011;16801;53.562;10.038;2024-02-16T13:40:37;2.93;;;2.53;;
29940;SDS011;16801;53.562;10.038;2024-02-16T13:43:58;2.63;;;2.37;;
29940;SDS011;16801;53.562;10.038;2024-02-16T13:47:19;3.67;;;2.67;;
29940;SDS011;16801;53.562;10.038;2024-02-16T13:50:40;5.67;;;3.10;;
29940;SDS011;16801;53.562;10.038;2024-02-16T13:54:03;3.87;;;2.70;;
29940;SDS011;16801;53.562;10.038;2024-02-16T13:57:24;4.57;;;2.50;;
29940;SDS011;16801;53.562;10.038;2024-02-16T14:00:45;3.07;;;2.70;;
29940;SDS011;16801;53.562;10.038;2024-02-16T14:04:06;4.30;;;3.17;;
29940;SDS011;16801;53.562;10.038;2024-02-16T14:07:27;3.63;;;2.67;;
29940;SDS011;16801;53.562;10.038;2024-02-16T14:10:49;3.30;;;2.97;;
29940;SDS011;16801;53.562;10.038;2024-02-16T14:14:10;3.97;;;3.53;;
29940;SDS011;16801;53.562;10.038;2024-02-16T14:17:31;7.10;;;2.93;;
29940;SDS011;16801;53.562;10.038;2024-02-16T14:20:52;3.00;;;2.70;;
29940;SDS011;16801;53.562;10.038;2024-02-16T14:24:13;3.30;;;3.00;;
29940;SDS011;16801;53.562;10.038;2024-02-16T14:27:36;9.20;;;3.10;;
29940;SDS011;16801;53.562;10.038;2024-02-16T14:30:57;4.40;;;4.10;;
29940;SDS011;16801;53.562;10.038;2024-02-16T14:34:18;7.73;;;3.30;;
29940;SDS011;16801;53.562;10.038;2024-02-16T14:37:39;3.17;;;2.97;;
29940;SDS011;16801;53.562;10.038;2024-02-16T14:41:00;3.83;;;3.37;;
29940;SDS011;16801;53.562;10.038;2024-02-16T14:44:24;4.43;;;2.97;;
29940;SDS011;16801;53.562;10.038;2024-02-16T14:47:45;6.37;;;3.67;;
29940;SDS011;16801;53.562;10.038;2024-02-16T14:51:06;5.73;;;3.90;;
29940;SDS011;16801;53.562;10.038;2024-02-16T14:54:27;4.10;;;3.60;;
29940;SDS011;16801;53.562;10.038;2024-02-16T14:57:49;4.77;;;4.23;;
29940;SDS011;16801;53.562;10.038;2024-02-16T15:01:12;4.77;;;4.23;;
29940;SDS011;16801;53.562;10.038;2024-02-16T15:04:33;5.83;;;3.90;;
29940;SDS011;16801;53.562;10.038;2024-02-16T15:07:53;6.87;;;6.17;;
29940;SDS011;16801;53.562;10.038;2024-02-16T15:11:15;7.50;;;6.80;;
29940;SDS011;16801;53.562;10.038;2024-02-16T15:14:36;7.47;;;4.90;;
29940;SDS011;16801;53.562;10.038;2024-02-16T15:17:59;6.10;;;4.50;;
29940;SDS011;16801;53.562;10.038;2024-02-16T15:21:23;9.27;;;5.27;;
29940;SDS011;16801;53.562;10.038;2024-02-16T15:24:44;6.17;;;5.57;;
29940;SDS011;16801;53.562;10.038;2024-02-16T15:28:05;6.00;;;5.43;;
29940;SDS011;16801;53.562;10.038;2024-02-16T15:31:27;5.73;;;5.13;;
29940;SDS011;16801;53.562;10.038;2024-02-16T15:34:49;5.97;;;5.23;;
29940;SDS011;16801;53.562;10.038;2024-02-16T15:38:12;6.07;;;4.63;;
29940;SDS011;16801;53.562;10.038;2024-02-16T15:41:33;6.47;;;4.67;;
29940;SDS011;16801;53.562;10.038;2024-02-16T15:44:54;6.73;;;5.40;;
29940;SDS011;16801;53.562;10.038;2024-02-16T15:48:14;5.37;;;4.87;;
29940;SDS011;16801;53.562;10.038;2024-02-16T15:51:38;5.70;;;5.20;;
29940;SDS011;16801;53.562;10.038;2024-02-16T15:54:59;6.97;;;6.37;;
29940;SDS011;16801;53.562;10.038;2024-02-16T15:58:20;5.93;;;5.33;;
29940;SDS011;16801;53.562;10.038;2024-02-16T16:01:41;7.57;;;5.53;;
29940;SDS011;16801;53.562;10.038;2024-02-16T16:05:02;5.83;;;5.30;;
29940;SDS011;16801;53.562;10.038;2024-02-16T16:08:25;4.97;;;4.57;;
29940;SDS011;16801;53.562;10.038;2024-02-16T16:11:46;6.57;;;4.97;;
29940;SDS011;16801;53.562;10.038;2024-02-16T16:15:07;4.90;;;4.50;;
29940;SDS011;16801;53.562;10.038;2024-02-16T16:18:28;4.23;;;3.83;;
29940;SDS011;16801;53.562;10.038;2024-02-16T16:21:52;3.53;;;3.23;;
29940;SDS011;16801;53.562;10.038;2024-02-16T16:25:15;3.53;;;3.23;;
29940;SDS011;16801;53.562;10.038;2024-02-16T16:28:36;7.17;;;6.47;;
29940;SDS011;16801;53.562;10.038;2024-02-16T16:31:57;3.60;;;3.30;;
29940;SDS011;16801;53.562;10.038;2024-02-16T16:35:19;3.87;;;3.57;;
29940;SDS011;16801;53.562;10.038;2024-02-16T16:38:41;5.23;;;4.83;;
29940;SDS011;16801;53.562;10.038;2024-02-16T16:42:03;5.27;;;4.87;;
29940;SDS011;16801;53.562;10.038;2024-02-16T16:45:24;3.87;;;3.57;;
29940;SDS011;16801;53.562;10.038;2024-02-16T16:48:48;4.37;;;4.07;;
29940;SDS011;16801;53.562;10.038;2024-02-16T16:52:09;4.33;;;4.03;;
29940;SDS011;16801;53.562;10.038;2024-02-16T16:55:30;3.30;;;3.10;;
29940;SDS011;16801;53.562;10.038;2024-02-16T16:58:52;3.70;;;3.40;;
29940;SDS011;16801;53.562;10.038;2024-02-16T17:02:13;6.67;;;3.47;;
29940;SDS011;16801;53.562;10.038;2024-02-16T17:05:34;3.63;;;3.33;;
29940;SDS011;16801;53.562;10.038;2024-02-16T17:08:56;3.63;;;3.33;;
29940;SDS011;16801;53.562;10.038;2024-02-16T17:12:17;4.17;;;3.87;;
29940;SDS011;16801;53.562;10.038;2024-02-16T17:15:40;4.53;;;4.23;;
29940;SDS011;16801;53.562;10.038;2024-02-16T17:19:01;5.33;;;4.93;;
29940;SDS011;16801;53.562;10.038;2024-02-16T17:22:22;3.33;;;3.13;;
29940;SDS011;16801;53.562;10.038;2024-02-16T17:25:43;7.30;;;6.73;;
29940;SDS011;16801;53.562;10.038;2024-02-16T17:29:04;2.47;;;2.20;;
29940;SDS011;16801;53.562;10.038;2024-02-16T17:32:26;2.50;;;2.30;;
29940;SDS011;16801;53.562;10.038;2024-02-16T17:35:47;3.83;;;3.53;;
29940;SDS011;16801;53.562;10.038;2024-02-16T17:39:08;2.30;;;2.20;;
29940;SDS011;16801;53.562;10.038;2024-02-16T17:42:29;3.10;;;1.77;;
29940;SDS011;16801;53.562;10.038;2024-02-16T17:45:50;3.20;;;2.90;;
29940;SDS011;16801;53.562;10.038;2024-02-16T17:49:13;1.90;;;1.80;;
29940;SDS011;16801;53.562;10.038;2024-02-16T17:52:34;1.30;;;1.20;;
29940;SDS011;16801;53.562;10.038;2024-02-16T17:55:55;4.27;;;3.13;;
29940;SDS011;16801;53.562;10.038;2024-02-16T17:59:15;1.03;;;1.03;;
29940;SDS011;16801;53.562;10.038;2024-02-16T18:02:36;1.23;;;1.23;;
29940;SDS011;16801;53.562;10.038;2024-02-16T18:05:59;1.40;;;1.30;;
29940;SDS011;16801;53.562;10.038;2024-02-16T18:09:20;1.30;;;1.30;;
29940;SDS011;16801;53.562;10.038;2024-02-16T18:12:41;1.47;;;1.33;;
29940;SDS011;16801;53.562;10.038;2024-02-16T18:16:02;1.47;;;1.37;;
29940;SDS011;16801;53.562;10.038;2024-02-16T18:19:23;1.20;;;1.10;;
29940;SDS011;16801;53.562;10.038;2024-02-16T18:22:45;2.23;;;2.13;;
29940;SDS011;16801;53.562;10.038;2024-02-16T18:26:06;2.50;;;2.17;;
29940;SDS011;16801;53.562;10.038;2024-02-16T18:29:27;2.00;;;1.90;;
29940;SDS011;16801;53.562;10.038;2024-02-16T18:32:49;1.10;;;1.10;;
29940;SDS011;16801;53.562;10.038;2024-02-16T18:36:10;2.53;;;2.20;;
29940;SDS011;16801;53.562;10.038;2024-02-16T18:39:32;1.00;;;1.00;;
29940;SDS011;16801;53.562;10.038;2024-02-16T18:42:53;1.60;;;1.50;;
29940;SDS011;16801;53.562;10.038;2024-02-16T18:46:14;3.53;;;2.87;;
29940;SDS011;16801;53.562;10.038;2024-02-16T18:49:36;4.37;;;4.00;;
29940;SDS011;16801;53.562;10.038;2024-02-16T18:52:56;2.67;;;2.20;;
29940;SDS011;16801;53.562;10.038;2024-02-16T18:56:19;1.97;;;1.70;;
29940;SDS011;16801;53.562;10.038;2024-02-16T18:59:40;3.40;;;1.60;;
29940;SDS011;16801;53.562;10.038;2024-02-16T19:03:00;1.63;;;1.53;;
29940;SDS011;16801;53.562;10.038;2024-02-16T19:06:21;2.23;;;2.03;;
29940;SDS011;16801;53.562;10.038;2024-02-16T19:09:42;2.07;;;1.83;;
29940;SDS011;16801;53.562;10.038;2024-02-16T19:13:11;1.80;;;1.70;;
29940;SDS011;16801;53.562;10.038;2024-02-16T19:16:32;1.83;;;1.67;;
29940;SDS011;16801;53.562;10.038;2024-02-16T19:19:53;2.40;;;2.23;;
29940;SDS011;16801;53.562;10.038;2024-02-16T19:23:14;2.07;;;1.67;;
29940;SDS011;16801;53.562;10.038;2024-02-16T19:26:35;6.20;;;5.70;;
29940;SDS011;16801;53.562;10.038;2024-02-16T19:29:58;3.27;;;2.97;;
29940;SDS011;16801;53.562;10.038;2024-02-16T19:33:20;5.73;;;5.23;;
29940;SDS011;16801;53.562;10.038;2024-02-16T19:36:41;2.97;;;2.77;;
29940;SDS011;16801;53.562;10.038;2024-02-16T19:40:02;2.80;;;2.60;;
29940;SDS011;16801;53.562;10.038;2024-02-16T19:43:23;2.97;;;2.67;;
29940;SDS011;16801;53.562;10.038;2024-02-16T19:46:46;3.23;;;2.97;;
29940;SDS011;16801;53.562;10.038;2024-02-16T19:50:07;2.87;;;2.67;;
29940;SDS011;16801;53.562;10.038;2024-02-16T19:53:28;3.47;;;3.17;;
29940;SDS011;16801;53.562;10.038;2024-02-16T19:56:49;3.57;;;3.30;;